Latest Weather Observations for Milingimbi

IDD60801

Issued at 1:31 pm CST Saturday 25 March 2017 (issued every 30 minutes, with the page automatically refreshed every 10 minutes)

About weather observations | Map of weather stations | Latest weather observations for NT | Other Formats
Station Details ID: 014404 Name: MILINGIMBI AIRPORT Lat: -12.09 Lon: 134.89 Height: 15.0 m
Data from the previous 72 hours. | See also: Recent months at Milingimbi
Date/Time
CST
Temp
°C
App
Temp
°C
Dew
Point
°C
Rel
Hum
%
Delta-T
°C
Wind Press
QNH
hPa
Press
MSL
hPa
Rain since
9am
mm
Dir  Spd
km/h
Gust
km/h
Spd
kts
Gust
kts
25/01:30pm 31.6 34.4 23.7 63 5.5 NW 15 24 8 13 1007.6 - 0.0
25/01:00pm 32.3 35.0 24.1 62 5.7 NNW 17 30 9 16 1008.0 - 0.0
25/12:30pm 31.6 34.9 24.5 66 5.0 NW 15 20 8 11 1008.3 - 0.0
25/12:00pm 32.2 36.1 24.8 65 5.2 NW 13 19 7 10 1008.5 1008.4 0.0
25/11:30am 32.2 36.1 24.8 65 5.2 NNW 13 24 7 13 1009.0 - 0.0
25/11:00am 31.7 35.6 24.8 67 4.9 NNW 13 20 7 11 1009.1 - 0.0
25/10:30am 32.2 36.8 25.3 67 4.9 NNW 11 19 6 10 1009.3 - 0.0
25/10:00am 31.6 35.6 25.0 68 4.7 NNW 13 20 7 11 1009.5 - 0.0
25/09:30am 30.8 35.1 24.9 71 4.1 NNW 11 19 6 10 1009.8 - 0.0
25/09:00am 30.5 34.2 24.6 70 4.1 NNW 13 19 7 10 1009.3 1009.2 0.0
25/08:30am 30.3 34.1 24.7 72 3.9 NNW 13 20 7 11 1009.2 - 0.0
25/08:00am 29.5 33.0 24.8 76 3.3 NW 15 22 8 12 1008.9 - 0.0
25/07:30am 28.3 33.9 24.9 82 2.4 WNW 4 9 2 5 1008.4 - 0.0
25/07:00am 27.6 34.1 25.0 86 1.8 CALM 0 0 0 0 1008.4 - 0.0
25/06:30am 27.7 32.3 24.7 84 2.1 NW 9 17 5 9 1008.0 - 0.0
25/06:00am 27.5 31.7 24.7 85 2.0 NW 11 17 6 9 1007.6 1007.5 0.0
25/05:30am 27.7 33.0 25.3 87 1.7 WNW 7 11 4 6 1007.6 - 0.0
25/05:00am 27.8 32.7 24.6 83 2.2 NW 7 9 4 5 1007.4 - 0.0
25/04:30am 28.0 32.4 24.4 81 2.5 NW 9 11 5 6 1007.2 - 0.0
25/04:00am 28.1 33.0 24.7 82 2.4 WNW 7 11 4 6 1007.4 - 0.0
25/03:30am 28.4 33.0 24.8 81 2.5 NW 9 15 5 8 1007.7 - 0.0
25/03:00am 28.3 33.5 25.1 83 2.2 NNW 7 11 4 6 1007.8 1007.7 0.0
25/02:30am 28.1 32.9 24.5 81 2.5 NNW 7 11 4 6 1008.1 - 0.0
25/02:00am 27.9 32.7 24.5 82 2.4 NNW 7 13 4 7 1008.4 - 0.0
25/01:30am 27.9 32.8 24.7 83 2.2 NNW 7 11 4 6 1008.4 - 0.0
25/01:00am 27.8 32.7 24.6 83 2.2 NNW 7 11 4 6 1008.5 - 0.0
25/12:30am 27.5 32.6 24.7 85 1.9 NNW 6 9 3 5 1008.8 - 0.0
25/12:00am 27.5 33.4 24.7 85 2.0 N 2 6 1 3 1008.9 1008.8 0.0
 
Date/Time
CST
Temp
°C
App
Temp
°C
Dew
Point
°C
Rel
Hum
%
Delta-T
°C
Wind Press
QNH
hPa
Press
MSL
hPa
Rain since
9am
mm
Dir  Spd
km/h
Gust
km/h
Spd
kts
Gust
kts
24/11:30pm 27.9 33.3 24.5 82 2.4 NW 4 6 2 3 1009.1 - 0.0
24/11:00pm 28.2 33.0 24.4 80 2.6 NNW 7 11 4 6 1009.5 - 0.0
24/10:30pm 28.3 33.2 24.7 81 2.5 NW 7 11 4 6 1009.7 - 0.0
24/10:00pm 28.2 33.1 24.4 80 2.6 NNW 6 7 3 4 1009.5 - 0.0
24/09:30pm 28.4 33.2 24.4 79 2.8 NW 7 9 4 5 1008.7 - 0.0
24/09:00pm 28.4 32.7 24.2 78 2.9 NW 9 13 5 7 1008.4 1008.3 0.0
24/08:30pm 28.5 33.2 24.3 78 2.9 NNW 7 11 4 6 1007.9 - 0.0
24/08:00pm 28.7 33.4 24.3 77 3.1 NW 7 11 4 6 1007.7 - 0.0
24/07:30pm 28.9 33.7 24.5 77 3.1 NW 7 9 4 5 1007.4 - 0.0
24/07:00pm 29.0 33.5 23.9 74 3.5 NNW 7 15 4 8 1007.2 - 0.0
24/06:30pm 29.5 33.6 23.9 72 3.9 NNW 9 15 5 8 1007.1 - 0.0
24/06:00pm 29.9 33.4 23.6 69 4.4 NNW 11 20 6 11 1006.7 1006.6 0.0
24/05:30pm 30.9 34.3 24.1 67 4.7 NNW 13 20 7 11 1006.7 - 0.0
24/05:00pm 31.6 35.0 23.4 61 5.7 NW 11 20 6 11 1006.6 - 0.0
24/04:30pm 31.2 34.6 24.1 66 4.9 N 13 22 7 12 1006.4 - 0.0
24/04:00pm 31.9 35.8 24.2 63 5.4 N 11 19 6 10 1006.4 - 0.0
24/03:30pm 31.4 34.7 23.8 64 5.3 N 13 22 7 12 1006.6 - 0.0
24/03:00pm 32.3 36.4 24.6 64 5.4 N 11 17 6 9 1006.9 1006.8 0.0
24/02:30pm 31.7 35.0 23.8 63 5.5 N 13 19 7 10 1007.3 - 0.0
24/02:00pm 31.6 34.9 24.5 66 5.0 N 15 22 8 12 1007.4 - 0.0
24/01:30pm 31.8 35.6 24.7 66 5.0 N 13 20 7 11 1007.8 - 0.0
24/01:00pm 31.5 35.1 24.4 66 5.0 N 13 22 7 12 1008.4 - 0.0
24/12:30pm 32.0 35.5 24.8 65 5.1 N 15 20 8 11 1008.8 - 0.0
24/12:00pm 31.7 35.4 24.6 66 5.0 N 13 24 7 13 1009.1 1009.0 0.0
24/11:30am 31.2 33.9 24.1 66 4.9 N 17 24 9 13 1009.6 - 0.0
24/11:00am 31.4 34.9 24.8 68 4.6 N 15 26 8 14 1009.8 - 0.0
24/10:30am 31.3 35.2 25.4 71 4.2 NNW 15 22 8 12 1010.2 - 0.0
24/10:00am 30.8 35.1 24.9 71 4.1 N 11 19 6 10 1010.4 - 0.0
24/09:30am 30.3 34.7 25.1 73 3.7 N 11 19 6 10 1010.4 - 0.0
24/09:00am 30.5 35.7 25.1 73 3.8 N 7 13 4 7 1010.3 1010.2 0.0
24/08:30am 29.8 34.5 24.9 75 3.4 NNW 9 13 5 7 1010.0 - 0.0
24/08:00am 28.9 34.0 24.7 78 2.9 NNW 6 9 3 5 1009.7 - 0.0
24/07:30am 27.1 33.7 25.3 90 1.3 CALM 0 0 0 0 1009.4 - 0.0
24/07:00am 26.0 32.3 24.8 93 0.8 CALM 0 0 0 0 1009.2 - 0.0
24/06:30am 26.0 32.2 24.6 92 1.0 CALM 0 0 0 0 1009.1 - 0.0
24/06:00am 26.1 32.4 24.7 92 1.0 CALM 0 0 0 0 1008.9 1008.8 0.0
24/05:30am 26.1 32.4 24.7 92 1.0 CALM 0 0 0 0 1008.5 - 0.0
24/05:00am 26.3 32.7 24.9 92 1.0 CALM 0 0 0 0 1008.3 - 0.0
24/04:30am 26.4 32.0 24.8 91 1.1 SSW 4 7 2 4 1008.3 - 0.0
24/04:00am 26.5 32.4 24.7 90 1.3 SW 2 6 1 3 1008.2 - 0.0
24/03:30am 26.6 32.1 24.6 89 1.4 WNW 4 6 2 3 1008.3 - 0.0
24/03:00am 26.9 33.2 24.7 88 1.5 CALM 0 4 0 2 1008.2 1008.1 0.0
24/02:30am 27.2 32.4 24.8 87 1.7 WNW 6 7 3 4 1008.6 - 0.0
24/02:00am 27.5 32.8 24.9 86 1.8 WSW 6 6 3 3 1008.6 - 0.0
24/01:30am 27.9 33.0 24.7 83 2.2 NW 6 7 3 4 1009.0 - 0.0
24/01:00am 28.2 33.1 24.6 81 2.5 NW 7 9 4 5 1009.4 - 0.0
24/12:30am 28.4 33.3 24.6 80 2.6 NNW 7 11 4 6 1009.6 - 0.0
24/12:00am 28.6 33.2 24.8 80 2.7 NNW 9 13 5 7 1010.1 1010.0 0.0
 
Date/Time
CST
Temp
°C
App
Temp
°C
Dew
Point
°C
Rel
Hum
%
Delta-T
°C
Wind Press
QNH
hPa
Press
MSL
hPa
Rain since
9am
mm
Dir  Spd
km/h
Gust
km/h
Spd
kts
Gust
kts
23/11:30pm 28.7 33.9 25.1 81 2.5 NNW 7 13 4 7 1010.3 - 0.0
23/11:00pm 28.7 33.9 25.1 81 2.5 NNW 7 11 4 6 1010.3 - 0.0
23/10:30pm 28.6 33.6 24.8 80 2.7 NNW 7 13 4 7 1010.0 - 0.0
23/10:00pm 28.6 33.7 25.0 81 2.5 NW 7 11 4 6 1010.0 - 0.0
23/09:30pm 28.2 32.7 24.6 81 2.5 NNW 9 11 5 6 1009.5 - 0.0
23/09:00pm 28.2 33.6 25.2 84 2.1 NW 6 9 3 5 1009.4 1009.3 0.0
23/08:30pm 28.4 34.7 25.4 84 2.1 NNW 2 6 1 3 1009.2 - 0.0
23/08:00pm 28.4 33.5 25.0 82 2.4 NW 7 11 4 6 1008.6 - 0.0
23/07:30pm 28.8 35.3 25.0 80 2.7 CALM 0 6 0 3 1008.5 - 0.0
23/07:00pm 29.0 34.1 24.6 77 3.1 NNW 6 7 3 4 1008.3 - 0.0
23/06:30pm 29.2 34.0 24.5 76 3.3 N 7 13 4 7 1007.7 - 0.0
23/06:00pm 29.6 34.0 24.5 74 3.6 N 9 13 5 7 1007.6 1007.5 0.0
23/05:30pm 30.1 34.7 24.7 73 3.8 NNW 9 17 5 9 1007.3 - 0.0
23/05:00pm 30.3 34.7 24.4 70 4.1 N 9 17 5 9 1007.1 - 0.0
23/04:30pm 31.0 35.1 23.9 66 4.9 NNW 9 15 5 8 1006.9 - 0.0
23/04:00pm 32.1 36.4 24.9 65 5.1 NNW 11 19 6 10 1007.2 - 0.0
23/03:30pm 31.0 34.2 24.4 68 4.6 NNW 15 24 8 13 1007.3 - 0.0
23/03:00pm 30.5 34.9 25.1 73 3.8 N 11 20 6 11 1007.6 1007.5 0.0
23/02:30pm 31.1 34.4 24.5 68 4.6 NNW 15 22 8 12 1008.1 - 0.0
23/02:00pm 31.5 34.9 24.6 67 4.8 N 15 22 8 12 1008.5 - 0.0
23/01:30pm 31.6 35.0 24.7 67 4.8 NNW 15 24 8 13 1008.9 - 0.0
23/01:00pm 31.7 34.9 24.3 65 5.2 NNW 15 20 8 11 1009.3 - 0.0
23/12:30pm 31.7 35.1 24.6 66 5.0 N 15 24 8 13 1009.7 - 0.0
23/12:00pm 31.1 35.5 24.5 68 4.6 N 9 17 5 9 1009.9 1009.8 0.0
23/11:30am 31.0 34.9 24.9 70 4.3 N 13 20 7 11 1010.2 - 0.0
23/11:00am 31.4 36.7 25.0 69 4.5 N 6 11 3 6 1010.4 - 0.0
23/10:30am 30.7 35.7 24.8 71 4.1 NW 7 13 4 7 1010.5 - 0.0
23/10:00am 29.8 34.2 23.5 69 4.3 WNW 6 9 3 5 1010.5 - 0.0
23/09:30am 29.3 33.9 24.2 74 3.5 W 7 9 4 5 1010.5 - 0.0
23/09:00am 28.7 33.6 24.7 79 2.8 W 7 11 4 6 1010.7 1010.6 0.0
23/08:30am 27.8 32.7 24.6 83 2.2 W 7 9 4 5 1010.5 - 0.0
23/08:00am 26.4 31.2 24.2 88 1.5 W 6 9 3 5 1010.2 - 0.0
23/07:30am 25.9 30.7 24.1 90 1.2 WSW 6 9 3 5 1009.8 - 0.0
23/07:00am 25.7 30.5 24.1 91 1.1 WSW 6 7 3 4 1009.8 - 0.0
23/06:30am 25.8 31.0 24.2 91 1.1 WSW 4 6 2 3 1009.4 - 0.0
23/06:00am 25.8 30.3 24.0 90 1.2 WSW 7 11 4 6 1009.1 1009.0 0.0
23/05:30am 25.7 30.5 24.1 91 1.1 WSW 6 7 3 4 1008.9 - 0.0
23/05:00am 25.9 30.8 24.3 91 1.1 SW 6 7 3 4 1008.5 - 0.0
23/04:30am 26.0 30.8 24.4 91 1.1 WSW 7 9 4 5 1008.5 - 0.0
23/04:00am 26.2 31.1 24.6 91 1.1 WSW 7 9 4 5 1008.4 - 0.0
23/03:30am 26.3 31.1 24.5 90 1.2 W 7 9 4 5 1008.4 - 0.0
23/03:00am 26.4 31.3 24.6 90 1.3 WSW 7 9 4 5 1008.5 1008.4 0.0
23/02:30am 26.4 30.8 24.4 89 1.4 SW 9 13 5 7 1008.6 - 0.0
23/02:00am 26.7 32.6 24.7 89 1.4 WNW 2 6 1 3 1008.9 - 0.0
23/01:30am 26.6 31.0 24.4 88 1.5 NW 9 11 5 6 1009.0 - 0.0
23/01:00am 26.7 32.3 24.9 90 1.3 WNW 4 6 2 3 1009.3 - 0.0
23/12:30am 27.0 32.4 25.2 90 1.3 WNW 6 7 3 4 1009.7 - 0.0
23/12:00am 26.7 31.9 25.1 91 1.1 NNW 7 9 4 5 1010.0 1009.9 0.0
 
Date/Time
CST
Temp
°C
App
Temp
°C
Dew
Point
°C
Rel
Hum
%
Delta-T
°C
Wind Press
QNH
hPa
Press
MSL
hPa
Rain since
9am
mm
Dir  Spd
km/h
Gust
km/h
Spd
kts
Gust
kts
22/11:30pm 26.5 32.9 24.9 91 1.1 CALM 0 7 0 4 1010.2 - 0.0
22/11:00pm 26.8 33.4 25.2 91 1.1 CALM 0 0 0 0 1010.4 - 0.0
22/10:30pm 26.9 33.5 25.3 91 1.1 CALM 0 0 0 0 1010.4 - 0.0
22/10:00pm 26.9 33.0 25.1 90 1.3 NNW 2 6 1 3 1010.2 - 0.0
22/09:30pm 27.3 33.6 25.3 89 1.4 NW 2 7 1 4 1009.7 - 0.0
22/09:00pm 27.1 32.4 24.9 88 1.5 WNW 6 6 3 3 1009.5 1009.4 0.0
22/08:30pm 27.5 33.3 25.1 87 1.7 W 4 6 2 3 1009.2 - 0.0
22/08:00pm 27.7 34.2 25.1 86 1.8 CALM 0 0 0 0 1008.9 - 0.0
22/07:30pm 27.9 33.9 24.9 84 2.1 W 2 6 1 3 1008.3 - 0.0
22/07:00pm 28.4 33.2 24.4 79 2.8 WSW 7 9 4 5 1008.0 - 0.0
22/06:30pm 29.0 33.7 24.3 76 3.3 WSW 7 11 4 6 1007.8 - 0.0
22/06:00pm 29.7 33.8 23.9 71 4.0 W 9 13 5 7 1007.6 1007.5 0.0
22/05:30pm 30.4 34.7 24.3 70 4.3 SW 9 13 5 7 1007.3 - 0.0
22/05:00pm 31.0 35.9 24.4 68 4.6 W 6 9 3 5 1007.0 - 0.0
22/04:30pm 31.8 36.5 23.9 63 5.5 WNW 6 15 3 8 1006.9 - 0.0
22/04:00pm 31.7 35.4 23.2 60 5.9 W 9 15 5 8 1007.2 - 0.0
22/03:30pm 30.9 34.7 23.5 64 5.1 W 9 19 5 10 1007.5 - 0.0
22/03:00pm 30.3 32.7 23.7 68 4.6 W 17 24 9 13 1007.9 1007.8 0.0
22/02:30pm 30.2 33.6 24.6 72 3.9 NW 15 22 8 12 1008.1 - 0.0
22/02:00pm 31.0 34.5 24.9 70 4.3 NW 15 32 8 17 1008.4 - 0.0

Other Formats:

Comma delimited format used in spreadsheet applications
http://www.bom.gov.au/fwo/IDD60801/IDD60801.94140.axf

JavaScript Object Notation format (JSON) in row-major order
http://www.bom.gov.au/fwo/IDD60801/IDD60801.94140.json